Weber Basin Water
2837 E Hwy 193, Layton
Last Weather Update:05/18/2012 10:00:00 AM
Date
ETo
ETc
Rain
Irrigation
Req
Temp
Max
Temp
Min
Temp
Avg
Avg RH
Avg Wind
Avg Solar
inches
inches
incehs
inches
F
F
F
%
%
watts/m2
04/01/2012 0.06" 0.00" 0.06" -0.06" 64.5° 31.9° 43.0° 50.4% 6.0 MPH 78.1w/m2
04/02/2012 0.14" 0.01" 0.00" 0.01" 52.5° 26.6° 40.2° 34.8% 4.7 MPH 277.1w/m2
04/03/2012 0.14" 0.01" 0.00" 0.01" 58.3° 34.1° 47.0° 44.4% 3.4 MPH 272.8w/m2
04/04/2012 0.17" 0.01" 0.00" 0.01" 69.7° 42.2° 53.7° 35.4% 3.3 MPH 272.8w/m2
04/05/2012 0.10" 0.01" 0.00" 0.01" 53.5° 33.2° 43.5° 47.0% 2.6 MPH 209.9w/m2
04/06/2012 0.08" 0.01" 0.16" -0.15" 43.6° 27.9° 35.3° 52.7% 4.0 MPH 192.6w/m2
04/07/2012 0.14" 0.02" 0.00" 0.02" 57.9° 26.5° 42.3° 32.1% 2.2 MPH 269.0w/m2
04/08/2012 0.17" 0.03" 0.00" 0.03" 70.2° 36.8° 53.1° 24.2% 1.9 MPH 293.1w/m2
04/09/2012 0.19" 0.03" 0.00" 0.03" 74.2° 41.7° 58.8° 17.8% 2.6 MPH 287.6w/m2
04/10/2012 0.20" 0.04" 0.00" 0.04" 78.1° 46.5° 63.2° 17.3% 3.4 MPH 280.1w/m2
04/11/2012 0.16" 0.04" 0.50" -0.46" 73.0° 42.0° 58.4° 30.7% 4.5 MPH 188.3w/m2
04/12/2012 0.04" 0.01" 0.81" -0.80" 45.8° 33.8° 39.9° 78.2% 3.7 MPH 60.8w/m2
04/13/2012 0.13" 0.03" 0.09" -0.06" 54.9° 32.8° 44.1° 55.8% 4.4 MPH 240.7w/m2
04/14/2012 0.09" 0.02" 0.16" -0.14" 54.4° 37.5° 43.5° 65.9% 3.1 MPH 179.8w/m2
04/15/2012 0.15" 0.04" 0.00" 0.04" 55.5° 35.9° 46.0° 45.0% 3.3 MPH 278.4w/m2
04/16/2012 0.14" 0.05" 0.00" 0.05" 60.5° 37.8° 49.4° 30.9% 2.8 MPH 263.0w/m2
04/17/2012 0.12" 0.04" 0.28" -0.24" 60.4° 42.1° 50.4° 52.8% 3.0 MPH 220.1w/m2
04/18/2012 0.05" 0.02" 0.12" -0.10" 55.6° 44.8° 49.3° 56.8% 2.2 MPH 92.4w/m2
04/19/2012 0.14" 0.05" 0.01" 0.04" 60.2° 43.0° 51.1° 54.2% 3.2 MPH 254.0w/m2
04/20/2012 0.15" 0.06" 0.00" 0.06" 68.4° 43.3° 56.1° 48.0% 2.2 MPH 255.4w/m2
04/21/2012 0.21" 0.09" 0.00" 0.09" 78.1° 48.3° 64.0° 32.0% 2.6 MPH 312.9w/m2
04/22/2012 0.21" 0.09" 0.00" 0.09" 83.5° 53.4° 69.0° 21.1% 2.4 MPH 301.0w/m2
04/23/2012 0.20" 0.09" 0.00" 0.09" 86.1° 59.6° 72.2° 21.6% 2.6 MPH 257.0w/m2
04/24/2012 0.23" 0.11" 0.00" 0.11" 83.0° 59.1° 71.6° 20.7% 3.5 MPH 300.6w/m2
04/25/2012 0.15" 0.08" 0.00" 0.08" 74.9° 59.3° 66.4° 32.4% 4.6 MPH 164.7w/m2
04/26/2012 0.13" 0.07" 0.39" -0.32" 72.8° 39.6° 61.9° 39.1% 5.0 MPH 109.6w/m2
04/27/2012 0.09" 0.05" 0.16" -0.11" 47.0° 37.2° 41.3° 53.4% 4.2 MPH 171.2w/m2
04/28/2012 0.15" 0.08" 0.00" 0.08" 52.0° 29.9° 41.9° 37.8% 2.6 MPH 301.3w/m2
04/29/2012 0.17" 0.10" 0.00" 0.10" 59.4° 38.7° 49.1° 38.0% 3.1 MPH 324.1w/m2
04/30/2012 0.15" 0.09" 0.00" 0.09" 70.8° 40.9° 56.9° 32.4% 3.2 MPH 220.5w/m2
Totals: 4.28" 1.39" 2.74" -1.35" 86.1° 26.5° 52.1° 40.1% 3.3 MPH 231.0w/m2